Time;durP1;ratioP1;P1;durP2;ratioP2;P2;SDS_P1;SDS_P2;PMS_P1;PMS_P2;Temp;Humidity;BMP_temperature;BMP_pressure;BME280_temperature;BME280_humidity;BME280_pressure;Samples;Min_cycle;Max_cycle;Signal;HPM_P1;HPM_P2
2021/06/01 00:01:16;;;;;;;11.93;5.17;;;12.50;99.90;;;;;;5070690;28;20456;-51
2021/06/01 00:03:42;;;;;;;9.93;5.43;;;12.50;99.90;;;;;;5070422;28;20466;-51
2021/06/01 00:06:08;;;;;;;8.13;4.70;;;12.40;99.90;;;;;;5069696;28;20917;-53
2021/06/01 00:08:34;;;;;;;9.90;4.90;;;12.30;99.90;;;;;;5070068;28;20738;-51
2021/06/01 00:10:59;;;;;;;8.50;5.20;;;12.30;99.90;;;;;;5069785;28;20467;-51
2021/06/01 00:13:25;;;;;;;10.30;5.00;;;12.30;99.90;;;;;;5070407;28;20461;-51
2021/06/01 00:15:51;;;;;;;9.32;5.15;;;12.30;99.90;;;;;;5069498;28;20387;-52
2021/06/01 00:18:16;;;;;;;8.55;4.72;;;12.30;99.90;;;;;;5070172;28;20376;-52
2021/06/01 00:20:42;;;;;;;8.20;4.60;;;12.40;99.90;;;;;;5070309;28;20388;-51
2021/06/01 00:23:08;;;;;;;9.75;5.28;;;12.40;99.90;;;;;;5069222;28;20577;-51
2021/06/01 00:25:33;;;;;;;7.63;4.93;;;12.40;99.90;;;;;;5069934;28;20853;-51
2021/06/01 00:27:59;;;;;;;10.80;4.97;;;12.30;99.90;;;;;;5069060;28;20384;-51
2021/06/01 00:30:24;;;;;;;10.37;5.10;;;12.30;99.90;;;;;;5069938;28;20391;-55
2021/06/01 00:32:50;;;;;;;9.10;5.30;;;12.30;99.90;;;;;;5068901;28;20404;-61
2021/06/01 00:35:17;;;;;;;9.27;5.07;;;12.30;99.90;;;;;;5069205;28;20383;-51
2021/06/01 00:37:42;;;;;;;9.70;5.40;;;12.30;99.90;;;;;;5069789;28;20399;-51
2021/06/01 00:40:09;;;;;;;8.57;5.15;;;12.20;99.90;;;;;;5068792;28;20840;-54
2021/06/01 00:42:34;;;;;;;8.05;4.90;;;12.10;99.90;;;;;;5070089;28;20388;-51
2021/06/01 00:45:02;;;;;;;9.13;5.53;;;12.10;99.90;;;;;;5068795;28;20384;-51
2021/06/01 00:47:28;;;;;;;8.70;5.20;;;12.00;99.90;;;;;;5069749;28;20376;-55
2021/06/01 00:49:54;;;;;;;9.90;5.13;;;12.10;99.90;;;;;;5069036;28;21222;-52
2021/06/01 00:52:19;;;;;;;8.65;5.22;;;12.00;99.90;;;;;;5029665;28;20514;-51
2021/06/01 00:54:47;;;;;;;10.20;5.30;;;12.10;99.90;;;;;;5028411;28;20451;-61
2021/06/01 00:57:13;;;;;;;9.27;4.90;;;11.90;99.90;;;;;;5029235;28;20379;-53
2021/06/01 00:59:39;;;;;;;8.15;5.20;;;11.90;99.90;;;;;;5030158;28;20453;-51
2021/06/01 01:02:05;;;;;;;9.13;5.17;;;11.90;99.90;;;;;;5028949;28;20389;-52
2021/06/01 01:04:32;;;;;;;9.55;5.25;;;11.80;99.90;;;;;;5029815;28;20469;-51
2021/06/01 01:07:44;;;;;;;9.43;5.60;;;11.70;99.90;;;;;;5028587;28;20761;-51
2021/06/01 01:10:09;;;;;;;9.40;5.25;;;11.70;99.90;;;;;;5028598;28;20406;-52
2021/06/01 01:12:55;;;;;;;10.32;5.10;;;11.70;99.90;;;;;;5029539;28;20414;-51
2021/06/01 01:15:22;;;;;;;8.27;5.10;;;11.60;99.90;;;;;;5029484;28;20383;-51
2021/06/01 01:17:51;;;;;;;8.40;4.90;;;11.60;99.90;;;;;;5029380;28;20383;-59
2021/06/01 01:20:37;;;;;;;11.90;5.50;;;11.60;99.90;;;;;;5029304;28;20409;-52
2021/06/01 01:23:17;;;;;;;9.55;4.90;;;11.60;99.90;;;;;;5028909;28;20388;-51
2021/06/01 01:25:48;;;;;;;9.63;5.30;;;11.60;99.90;;;;;;5029605;28;20382;-53
2021/06/01 01:28:48;;;;;;;11.18;5.35;;;11.60;99.90;;;;;;5029160;28;20395;-51
2021/06/01 01:31:26;;;;;;;8.15;4.90;;;11.50;99.90;;;;;;5028751;28;20391;-51
2021/06/01 01:33:52;;;;;;;9.93;5.60;;;11.50;99.90;;;;;;5029102;28;20469;-61
2021/06/01 01:36:19;;;;;;;9.30;5.32;;;11.40;99.90;;;;;;5029278;28;20498;-51
2021/06/01 01:38:45;;;;;;;9.30;5.10;;;11.30;99.90;;;;;;5029158;28;20402;-51
2021/06/01 01:41:15;;;;;;;9.93;5.73;;;11.20;99.90;;;;;;5028806;28;20387;-51
2021/06/01 01:43:43;;;;;;;9.27;5.60;;;11.00;99.90;;;;;;5029449;28;20383;-52
2021/06/01 01:46:50;;;;;;;9.60;5.55;;;10.90;99.90;;;;;;5030484;28;20379;-51
2021/06/01 01:49:01;;;;;;;9.25;5.38;;;10.90;99.90;;;;;;5031808;28;20387;-51
2021/06/01 01:51:39;;;;;;;9.98;5.22;;;10.90;99.90;;;;;;5055499;28;20498;-51
2021/06/01 01:54:14;;;;;;;9.55;5.65;;;10.80;99.90;;;;;;5072556;28;20919;-51
2021/06/01 01:56:43;;;;;;;9.00;5.07;;;10.80;99.90;;;;;;5073098;28;20391;-51
2021/06/01 01:59:15;;;;;;;8.20;5.10;;;10.80;99.90;;;;;;5071945;28;20445;-51
2021/06/01 02:01:43;;;;;;;8.90;5.50;;;10.80;99.90;;;;;;5072734;28;20380;-52
2021/06/01 02:04:09;;;;;;;10.18;5.50;;;10.90;99.90;;;;;;5072115;28;21212;-51
2021/06/01 02:06:35;;;;;;;8.38;4.90;;;10.90;99.90;;;;;;5072465;28;20384;-51
2021/06/01 02:09:04;;;;;;;8.10;5.07;;;11.00;99.90;;;;;;5072024;28;20776;-50
2021/06/01 02:11:29;;;;;;;11.68;5.47;;;11.00;99.90;;;;;;5072577;28;20379;-58
2021/06/01 02:14:02;;;;;;;9.67;5.70;;;10.90;99.90;;;;;;5071705;28;20499;-51
2021/06/01 02:16:30;;;;;;;9.63;5.60;;;10.80;99.90;;;;;;5072444;28;20388;-51
2021/06/01 02:18:56;;;;;;;9.40;5.85;;;10.60;99.90;;;;;;5071843;28;20435;-51
2021/06/01 02:21:59;;;;;;;10.05;6.22;;;10.50;99.90;;;;;;5072513;28;20391;-51
2021/06/01 02:24:38;;;;;;;10.07;5.80;;;10.50;99.90;;;;;;5071730;28;20416;-51
2021/06/01 02:27:22;;;;;;;11.45;6.10;;;10.40;99.90;;;;;;5071782;28;20861;-51
2021/06/01 02:30:07;;;;;;;9.82;6.10;;;10.20;99.90;;;;;;5072267;28;20430;-55
2021/06/01 02:32:44;;;;;;;10.75;6.30;;;10.00;99.90;;;;;;5072088;28;20403;-51
2021/06/01 02:35:11;;;;;;;9.18;6.30;;;10.00;99.90;;;;;;5071570;28;20429;-52
2021/06/01 02:37:42;;;;;;;11.57;6.32;;;10.10;99.90;;;;;;5072442;28;20392;-51
2021/06/01 02:40:11;;;;;;;12.02;6.65;;;10.10;99.90;;;;;;5071233;28;20399;-51
2021/06/01 02:42:42;;;;;;;10.93;6.50;;;10.00;99.90;;;;;;5071482;28;20941;-51
2021/06/01 02:45:09;;;;;;;10.70;6.50;;;10.00;99.90;;;;;;5071310;28;20376;-51
2021/06/01 02:47:35;;;;;;;10.90;6.20;;;10.10;99.90;;;;;;5053571;28;20812;-54
2021/06/01 02:50:04;;;;;;;10.20;6.40;;;10.10;99.90;;;;;;5070260;28;20441;-51
2021/06/01 02:52:31;;;;;;;11.65;6.28;;;10.30;99.90;;;;;;5075993;28;20889;-53
2021/06/01 02:55:00;;;;;;;9.60;5.80;;;10.20;99.90;;;;;;5090895;28;20378;-51
2021/06/01 02:57:26;;;;;;;9.10;5.65;;;10.30;99.90;;;;;;5073140;28;20735;-51
2021/06/01 02:59:52;;;;;;;8.60;5.80;;;10.30;99.90;;;;;;5091959;28;20378;-60
2021/06/01 03:02:18;;;;;;;11.63;5.65;;;10.30;99.90;;;;;;5091666;28;20379;-50
2021/06/01 03:04:53;;;;;;;10.23;6.27;;;10.30;99.90;;;;;;5091792;28;20385;-50
2021/06/01 03:07:19;;;;;;;11.23;6.00;;;10.30;99.90;;;;;;5091825;28;20436;-50
2021/06/01 03:09:45;;;;;;;10.82;6.15;;;10.20;99.90;;;;;;5091555;28;20374;-50
2021/06/01 03:12:37;;;;;;;11.43;6.60;;;10.20;99.90;;;;;;5090651;28;20621;-50
2021/06/01 03:15:04;;;;;;;10.20;6.40;;;10.10;99.90;;;;;;5085256;28;20384;-50
2021/06/01 03:17:30;;;;;;;10.23;6.20;;;10.10;99.90;;;;;;5071363;28;20862;-50
2021/06/01 03:19:56;;;;;;;10.10;6.35;;;10.00;99.90;;;;;;5070547;28;20379;-50
2021/06/01 03:22:21;;;;;;;11.13;6.53;;;10.00;99.90;;;;;;5071380;28;21311;-50
2021/06/01 03:24:47;;;;;;;11.07;6.40;;;10.10;99.90;;;;;;5071312;28;20402;-50
2021/06/01 03:27:13;;;;;;;11.33;6.60;;;10.20;99.90;;;;;;5070454;28;20375;-50
2021/06/01 03:29:39;;;;;;;10.10;6.18;;;10.10;99.90;;;;;;5053220;28;20411;-50
2021/06/01 03:32:06;;;;;;;9.68;5.90;;;10.10;99.90;;;;;;5078673;28;20383;-50
2021/06/01 03:34:33;;;;;;;10.07;5.70;;;10.10;99.90;;;;;;5091453;28;20374;-50
2021/06/01 03:36:58;;;;;;;9.70;5.90;;;10.10;99.90;;;;;;5090679;28;20394;-50
2021/06/01 03:39:26;;;;;;;9.90;6.20;;;10.10;99.90;;;;;;5090910;28;20375;-50
2021/06/01 03:41:52;;;;;;;10.85;6.20;;;10.20;99.90;;;;;;5091039;28;20385;-60
2021/06/01 03:44:17;;;;;;;10.67;5.67;;;10.20;99.90;;;;;;5090275;28;20390;-50
2021/06/01 03:46:43;;;;;;;10.90;6.75;;;10.20;99.90;;;;;;5071692;28;20729;-50
2021/06/01 03:49:09;;;;;;;11.80;6.77;;;10.10;99.90;;;;;;5069864;28;20380;-50
2021/06/01 03:51:35;;;;;;;11.27;6.45;;;10.00;99.90;;;;;;5070645;28;20791;-50
2021/06/01 03:54:00;;;;;;;9.82;6.25;;;9.80;99.90;;;;;;5069962;28;20443;-50
2021/06/01 03:56:26;;;;;;;10.73;6.53;;;9.70;99.90;;;;;;5070495;28;20388;-50
2021/06/01 03:58:52;;;;;;;10.93;6.22;;;9.80;99.90;;;;;;5089757;28;20728;-59
2021/06/01 04:01:18;;;;;;;11.45;6.18;;;9.90;99.90;;;;;;5090206;28;20897;-50
2021/06/01 04:03:44;;;;;;;10.57;6.13;;;9.90;99.90;;;;;;5090545;28;20378;-50
2021/06/01 04:06:11;;;;;;;12.15;7.10;;;10.00;99.90;;;;;;5089865;28;20375;-50
2021/06/01 04:08:38;;;;;;;11.63;6.68;;;10.00;99.90;;;;;;5089831;28;20961;-51
2021/06/01 04:11:04;;;;;;;10.80;6.53;;;10.00;99.90;;;;;;5081436;28;20932;-49
2021/06/01 04:13:29;;;;;;;11.10;6.65;;;10.10;99.90;;;;;;5073529;28;20519;-50
2021/06/01 04:15:55;;;;;;;11.27;6.65;;;10.20;99.90;;;;;;5086098;28;20391;-52
2021/06/01 04:18:21;;;;;;;11.68;7.32;;;10.30;99.90;;;;;;5081243;28;20715;-50
2021/06/01 04:20:47;;;;;;;10.60;7.13;;;10.30;99.90;;;;;;5072303;28;20428;-50
2021/06/01 04:23:13;;;;;;;11.30;6.53;;;10.50;99.90;;;;;;5060075;28;20400;-50
2021/06/01 04:25:39;;;;;;;11.45;6.90;;;10.60;99.90;;;;;;5070225;28;20380;-50
2021/06/01 04:28:05;;;;;;;9.88;6.70;;;10.60;99.90;;;;;;5069312;28;20422;-50
2021/06/01 04:30:31;;;;;;;11.65;7.53;;;10.80;99.90;;;;;;5069741;28;20415;-51
2021/06/01 04:32:57;;;;;;;11.77;6.95;;;10.90;99.90;;;;;;5069268;28;20411;-51
2021/06/01 04:35:23;;;;;;;12.77;7.10;;;11.00;99.90;;;;;;5051880;28;20746;-50
2021/06/01 04:37:49;;;;;;;11.87;7.40;;;11.10;99.90;;;;;;5069987;28;20861;-51
2021/06/01 04:40:15;;;;;;;13.70;7.53;;;11.30;99.90;;;;;;5068922;28;20376;-50
2021/06/01 04:42:44;;;;;;;14.00;7.00;;;11.30;99.90;;;;;;5069590;28;20384;-51
2021/06/01 04:45:14;;;;;;;12.57;7.07;;;11.30;99.90;;;;;;5068616;28;20376;-51
2021/06/01 04:47:41;;;;;;;10.55;6.80;;;11.30;99.90;;;;;;5070048;28;20433;-50
2021/06/01 04:50:07;;;;;;;11.20;6.97;;;11.40;99.90;;;;;;5068293;28;20884;-51
2021/06/01 04:52:33;;;;;;;11.73;7.00;;;11.70;99.90;;;;;;5069702;28;21001;-51
2021/06/01 04:54:59;;;;;;;10.93;6.87;;;12.40;99.90;;;;;;5068834;28;20477;-51
2021/06/01 04:57:24;;;;;;;10.57;6.50;;;13.70;99.90;;;;;;5069799;28;20451;-51
2021/06/01 04:59:50;;;;;;;11.85;6.50;;;15.40;99.90;;;;;;5069833;28;20477;-52
2021/06/01 05:02:15;;;;;;;15.38;7.13;;;16.80;99.90;;;;;;5068817;28;20442;-52
2021/06/01 05:04:41;;;;;;;10.77;6.40;;;18.50;99.90;;;;;;5069557;28;20864;-54
2021/06/01 05:07:08;;;;;;;10.53;5.90;;;20.00;97.30;;;;;;5068821;28;20865;-51
2021/06/01 05:09:33;;;;;;;11.80;6.30;;;21.10;93.30;;;;;;5069361;28;20888;-55
2021/06/01 05:11:59;;;;;;;10.30;6.70;;;21.80;90.70;;;;;;5068477;28;20392;-51
2021/06/01 05:14:25;;;;;;;11.63;6.40;;;22.20;85.60;;;;;;5069354;28;20407;-62
2021/06/01 05:16:51;;;;;;;11.43;6.57;;;22.90;83.30;;;;;;5069422;28;20465;-53
2021/06/01 05:19:16;;;;;;;11.80;7.15;;;23.50;79.00;;;;;;5068804;28;20892;-54
2021/06/01 05:21:42;;;;;;;10.50;6.47;;;23.60;75.10;;;;;;5072368;28;20387;-54
2021/06/01 05:24:08;;;;;;;11.07;7.80;;;24.00;74.30;;;;;;5072830;28;20395;-51
2021/06/01 05:26:34;;;;;;;10.80;6.70;;;24.90;70.40;;;;;;5073175;28;20390;-54
2021/06/01 05:28:59;;;;;;;10.83;7.10;;;25.50;67.70;;;;;;5072641;28;20410;-58
2021/06/01 05:34:07;;;;;;;12.10;8.10;;;26.60;60.60;;;;;;5075244;28;20410;-51
2021/06/01 05:36:33;;;;;;;10.93;6.97;;;26.70;58.80;;;;;;5073322;28;20388;-51
2021/06/01 05:38:59;;;;;;;11.60;7.07;;;26.90;57.10;;;;;;5072850;28;20795;-51
2021/06/01 05:41:24;;;;;;;8.93;6.20;;;26.70;54.20;;;;;;5073062;28;20714;-52
2021/06/01 05:43:50;;;;;;;8.90;6.10;;;26.20;54.80;;;;;;5081578;28;20411;-51
2021/06/01 05:46:16;;;;;;;10.48;5.85;;;26.20;54.60;;;;;;5063436;28;20395;-54
2021/06/01 05:48:42;;;;;;;8.60;5.65;;;26.50;54.30;;;;;;5079308;28;20742;-52
2021/06/01 05:51:07;;;;;;;9.80;6.40;;;26.20;53.30;;;;;;5047851;28;20535;-53
2021/06/01 05:53:33;;;;;;;10.23;5.70;;;26.20;52.90;;;;;;5034986;28;20445;-52
2021/06/01 05:55:59;;;;;;;8.50;5.63;;;25.60;54.10;;;;;;5042365;28;20424;-54
2021/06/01 05:58:25;;;;;;;8.95;6.10;;;25.40;54.70;;;;;;5030222;28;20399;-58
2021/06/01 06:00:51;;;;;;;10.27;5.50;;;25.80;53.70;;;;;;5036550;28;20435;-52
2021/06/01 06:03:17;;;;;;;10.30;5.70;;;25.80;53.90;;;;;;5051405;28;20416;-54
2021/06/01 06:05:44;;;;;;;9.80;5.80;;;26.20;53.40;;;;;;5052091;28;20405;-52
2021/06/01 06:08:15;;;;;;;12.13;5.80;;;26.50;53.10;;;;;;5051515;28;20819;-53
2021/06/01 06:10:42;;;;;;;9.48;5.50;;;27.00;53.00;;;;;;5036533;28;20437;-53
2021/06/01 06:13:08;;;;;;;9.80;5.70;;;27.30;50.70;;;;;;5036961;28;20420;-53
2021/06/01 06:15:35;;;;;;;7.90;4.97;;;27.50;49.70;;;;;;5032599;28;20383;-55
2021/06/01 06:18:36;;;;;;;8.40;5.10;;;27.30;47.90;;;;;;5033856;28;20482;-56
2021/06/01 06:21:05;;;;;;;8.57;5.00;;;26.50;49.70;;;;;;5039601;28;20948;-56
2021/06/01 06:23:34;;;;;;;8.85;4.70;;;26.80;51.10;;;;;;5047149;28;20390;-56
2021/06/01 06:26:00;;;;;;;9.82;4.53;;;27.30;49.50;;;;;;5031476;28;20425;-54
2021/06/01 06:28:26;;;;;;;9.00;4.28;;;27.50;48.00;;;;;;5042781;28;20389;-62
2021/06/01 06:30:52;;;;;;;7.20;4.00;;;26.10;48.50;;;;;;5032440;28;20391;-55
2021/06/01 06:33:17;;;;;;;6.40;3.70;;;26.50;49.50;;;;;;5037349;28;21159;-59
2021/06/01 06:35:44;;;;;;;7.57;3.63;;;26.70;48.20;;;;;;5051786;28;20390;-56
2021/06/01 06:38:10;;;;;;;7.80;4.40;;;26.50;48.20;;;;;;5049279;28;20836;-60
2021/06/01 06:40:35;;;;;;;7.23;4.10;;;26.80;47.70;;;;;;5043185;28;20463;-53
2021/06/01 06:43:01;;;;;;;9.10;4.00;;;26.70;47.60;;;;;;5038001;28;20533;-52
2021/06/01 06:45:30;;;;;;;6.50;3.95;;;26.80;48.00;;;;;;5039383;28;20468;-54
2021/06/01 06:48:04;;;;;;;7.13;3.67;;;27.20;46.60;;;;;;5040358;28;20870;-61
2021/06/01 06:50:31;;;;;;;6.77;4.20;;;27.20;47.30;;;;;;5037859;28;20408;-50
2021/06/01 06:52:56;;;;;;;6.60;3.80;;;28.00;47.40;;;;;;5039661;28;20447;-59
2021/06/01 06:55:22;;;;;;;7.68;3.70;;;28.10;45.20;;;;;;5037670;28;20733;-50
2021/06/01 06:57:48;;;;;;;5.93;3.28;;;27.80;45.10;;;;;;5042117;28;20380;-49
2021/06/01 07:00:16;;;;;;;8.57;4.03;;;27.80;46.20;;;;;;5037913;28;20899;-51
2021/06/01 07:02:43;;;;;;;6.88;3.90;;;28.00;44.60;;;;;;5040160;28;20395;-52
2021/06/01 07:05:15;;;;;;;7.50;4.00;;;27.80;45.20;;;;;;5039427;28;20378;-52
2021/06/01 07:07:42;;;;;;;7.03;3.55;;;27.90;44.80;;;;;;5039967;28;20507;-52
2021/06/01 07:10:12;;;;;;;6.65;3.47;;;28.70;44.30;;;;;;5037829;28;20418;-53
2021/06/01 07:12:43;;;;;;;6.90;3.83;;;29.40;45.30;;;;;;5037798;28;20879;-54
2021/06/01 07:15:23;;;;;;;6.15;3.70;;;29.80;42.40;;;;;;5039249;28;20895;-52
2021/06/01 07:17:54;;;;;;;6.80;3.17;;;29.20;43.00;;;;;;5040125;28;20862;-60
2021/06/01 07:20:20;;;;;;;7.13;3.60;;;28.90;43.10;;;;;;5037148;28;20391;-52
2021/06/01 07:22:45;;;;;;;6.20;3.40;;;28.60;43.50;;;;;;5048917;28;20389;-54
2021/06/01 07:25:11;;;;;;;6.20;3.50;;;29.00;43.60;;;;;;5041163;28;20395;-52
2021/06/01 07:27:38;;;;;;;6.10;3.47;;;28.80;43.20;;;;;;5039092;28;20432;-52
2021/06/01 07:30:08;;;;;;;8.93;3.67;;;28.80;43.20;;;;;;5049438;28;20678;-53
2021/06/01 07:32:34;;;;;;;7.72;3.63;;;29.20;42.60;;;;;;5043512;28;20934;-52
2021/06/01 07:35:01;;;;;;;7.90;3.40;;;29.40;42.50;;;;;;5038499;28;20478;-55
2021/06/01 07:37:27;;;;;;;6.05;3.38;;;29.70;42.30;;;;;;5039022;28;20871;-53
2021/06/01 07:39:53;;;;;;;8.35;3.83;;;30.10;41.50;;;;;;5039852;28;20406;-52
2021/06/01 07:42:19;;;;;;;6.28;3.50;;;30.40;41.20;;;;;;5039014;28;20398;-53
2021/06/01 07:44:44;;;;;;;5.50;3.10;;;29.90;42.00;;;;;;5030401;28;20391;-52
2021/06/01 07:47:10;;;;;;;6.25;3.72;;;30.50;41.20;;;;;;5034830;28;20924;-52
2021/06/01 07:49:36;;;;;;;6.10;3.40;;;30.30;39.60;;;;;;5040715;28;20375;-52
2021/06/01 07:52:01;;;;;;;6.67;3.50;;;29.50;40.40;;;;;;5071359;28;20417;-54
2021/06/01 07:54:28;;;;;;;7.60;2.90;;;29.70;40.40;;;;;;5075719;28;20411;-54
2021/06/01 07:56:54;;;;;;;6.05;3.55;;;30.40;39.90;;;;;;5074222;28;20386;-62
2021/06/01 07:59:20;;;;;;;5.90;3.47;;;31.10;39.70;;;;;;5076977;28;20380;-52
2021/06/01 08:01:47;;;;;;;7.17;3.00;;;30.90;37.70;;;;;;5079452;28;20397;-53
2021/06/01 08:04:12;;;;;;;8.05;3.50;;;30.80;37.90;;;;;;5078549;28;20382;-52
2021/06/01 08:06:38;;;;;;;6.47;3.33;;;29.80;38.50;;;;;;5076307;28;21143;-52
2021/06/01 08:09:05;;;;;;;5.47;2.90;;;29.70;39.00;;;;;;5078674;28;20423;-52
2021/06/01 08:11:31;;;;;;;6.55;3.50;;;30.30;37.70;;;;;;5078119;28;20390;-52
2021/06/01 08:13:56;;;;;;;6.50;2.92;;;29.60;38.90;;;;;;5077936;28;20914;-61
2021/06/01 08:16:22;;;;;;;5.57;3.00;;;29.20;38.10;;;;;;5079720;28;20386;-53
2021/06/01 08:19:03;;;;;;;5.70;2.90;;;29.00;39.10;;;;;;5078841;28;20385;-51
2021/06/01 08:21:41;;;;;;;5.40;2.47;;;28.60;39.70;;;;;;5077549;28;20486;-53
2021/06/01 08:24:07;;;;;;;9.23;2.88;;;29.10;39.30;;;;;;5076553;28;20869;-52
2021/06/01 08:26:33;;;;;;;5.60;2.67;;;29.70;38.10;;;;;;5061295;28;20378;-52
2021/06/01 08:28:59;;;;;;;7.40;3.40;;;30.20;37.70;;;;;;5079345;28;20394;-60
2021/06/01 08:31:24;;;;;;;6.17;3.00;;;29.90;38.30;;;;;;5075943;28;20402;-52
2021/06/01 08:33:51;;;;;;;6.23;2.80;;;31.00;36.00;;;;;;5075346;28;20441;-54
2021/06/01 08:36:17;;;;;;;6.32;3.05;;;30.70;36.10;;;;;;5084084;28;20374;-51
2021/06/01 08:38:43;;;;;;;6.00;2.60;;;30.70;36.60;;;;;;5059611;28;20471;-51
2021/06/01 08:41:13;;;;;;;5.50;2.70;;;30.60;36.80;;;;;;5080763;28;20384;-58
2021/06/01 08:43:38;;;;;;;6.55;3.33;;;29.70;37.20;;;;;;5059823;28;20733;-57
2021/06/01 08:46:05;;;;;;;5.85;3.13;;;29.60;36.60;;;;;;5056707;28;20445;-57
2021/06/01 08:48:34;;;;;;;6.43;3.00;;;29.60;37.20;;;;;;5084862;28;20392;-58
2021/06/01 08:51:00;;;;;;;9.10;3.50;;;29.80;37.80;;;;;;5069078;28;20430;-67
2021/06/01 08:53:26;;;;;;;5.85;3.10;;;30.00;36.50;;;;;;5062990;28;20887;-56
2021/06/01 08:55:51;;;;;;;6.53;3.50;;;30.00;36.20;;;;;;5082359;28;20384;-57
2021/06/01 08:58:22;;;;;;;6.63;2.60;;;29.60;37.00;;;;;;5071566;28;20378;-56
2021/06/01 09:00:49;;;;;;;5.43;2.40;;;29.30;36.40;;;;;;5073999;28;21064;-56
2021/06/01 09:03:18;;;;;;;6.07;2.95;;;29.60;36.20;;;;;;5074265;28;20993;-57
2021/06/01 09:06:58;;;;;;;6.75;2.50;;;29.00;36.30;;;;;;5089091;28;20386;-61
2021/06/01 09:22:49;;;;;;;5.15;2.60;;;27.90;36.40;;;;;;5075969;28;20516;-59
2021/06/01 09:28:14;;;;;;;8.90;3.20;;;28.70;38.60;;;;;;5077563;28;20451;-56
2021/06/01 09:30:45;;;;;;;6.07;3.28;;;30.50;35.60;;;;;;5077444;28;20996;-57
2021/06/01 09:33:19;;;;;;;5.13;2.90;;;30.20;33.20;;;;;;5076383;28;20757;-57
2021/06/01 09:36:01;;;;;;;6.40;2.83;;;30.90;33.90;;;;;;5079507;28;20880;-57
2021/06/01 09:38:35;;;;;;;5.80;2.60;;;31.30;32.70;;;;;;5075704;28;20757;-57
2021/06/01 09:41:09;;;;;;;5.57;3.00;;;31.10;33.10;;;;;;5074657;28;20388;-58
2021/06/01 09:43:57;;;;;;;5.50;2.80;;;31.50;33.50;;;;;;5060232;28;20397;-61
2021/06/01 09:46:29;;;;;;;5.50;3.00;;;30.30;34.80;;;;;;5071726;28;20475;-57
2021/06/01 09:49:15;;;;;;;5.45;2.80;;;30.80;33.50;;;;;;5084922;28;20434;-57
2021/06/01 09:51:45;;;;;;;6.80;3.17;;;31.80;32.60;;;;;;5080799;28;20407;-57
2021/06/01 09:54:45;;;;;;;5.70;2.90;;;30.10;32.10;;;;;;5050009;28;20769;-62
2021/06/01 09:57:23;;;;;;;6.68;2.85;;;30.30;34.20;;;;;;5054360;28;20790;-57
2021/06/01 10:00:09;;;;;;;6.05;2.70;;;31.10;33.80;;;;;;5086111;28;20386;-57
2021/06/01 10:02:35;;;;;;;6.43;3.08;;;31.60;32.80;;;;;;5050808;28;20439;-57
2021/06/01 10:05:18;;;;;;;5.80;2.80;;;31.90;32.20;;;;;;5078082;28;20447;-57
2021/06/01 10:07:44;;;;;;;5.50;2.90;;;31.80;32.40;;;;;;5074435;28;20407;-60
2021/06/01 10:10:21;;;;;;;6.70;2.63;;;32.00;32.50;;;;;;5082519;28;20467;-56
2021/06/01 10:12:59;;;;;;;6.35;2.90;;;30.60;33.20;;;;;;5080541;28;20418;-56
2021/06/01 10:15:27;;;;;;;6.70;3.00;;;29.90;33.50;;;;;;5080903;28;20376;-56
2021/06/01 10:17:53;;;;;;;7.40;3.00;;;29.90;33.90;;;;;;5085636;28;20378;-56
2021/06/01 10:20:21;;;;;;;6.23;3.00;;;29.70;33.60;;;;;;5079107;28;20390;-56
2021/06/01 10:22:48;;;;;;;7.25;2.83;;;28.90;33.90;;;;;;5071678;28;20890;-56
2021/06/01 10:25:16;;;;;;;7.05;3.15;;;28.40;34.90;;;;;;5081372;28;20846;-56
2021/06/01 10:27:46;;;;;;;5.53;2.92;;;28.10;34.10;;;;;;5086181;28;20457;-56
2021/06/01 10:30:14;;;;;;;7.37;3.20;;;27.90;36.40;;;;;;5064783;28;20411;-58
2021/06/01 10:32:44;;;;;;;5.50;2.80;;;28.20;36.10;;;;;;5092087;28;20410;-56
2021/06/01 10:35:14;;;;;;;6.13;2.70;;;26.60;36.40;;;;;;5077282;28;20380;-62
2021/06/01 10:52:01;;;;;;;5.20;2.63;;;24.80;38.70;;;;;;5084261;28;20451;-57
2021/06/01 10:54:39;;;;;;;5.03;2.70;;;24.80;38.10;;;;;;5085626;28;20425;-57
2021/06/01 10:57:08;;;;;;;6.80;2.43;;;24.60;38.50;;;;;;5072720;28;20426;-57
2021/06/01 11:02:30;;;;;;;5.30;2.70;;;25.00;38.60;;;;;;5079525;28;20417;-57
2021/06/01 11:05:10;;;;;;;5.60;2.90;;;24.50;38.80;;;;;;5091915;28;20732;-57
2021/06/01 11:08:10;;;;;;;6.45;3.30;;;24.80;40.30;;;;;;5082733;28;20877;-57
2021/06/01 11:10:47;;;;;;;5.80;2.80;;;24.70;39.50;;;;;;5071025;28;20395;-57
2021/06/01 11:13:18;;;;;;;6.77;3.30;;;24.50;39.40;;;;;;5070334;28;20408;-56
2021/06/01 11:15:54;;;;;;;6.30;2.90;;;24.80;41.30;;;;;;5070367;28;20396;-56
2021/06/01 11:18:26;;;;;;;6.00;3.10;;;24.80;38.50;;;;;;5080114;28;20441;-59
2021/06/01 11:21:31;;;;;;;6.20;3.10;;;24.70;39.70;;;;;;5091030;28;20552;-57
2021/06/01 11:24:17;;;;;;;5.40;2.70;;;24.50;39.20;;;;;;5083839;28;20392;-57
2021/06/01 11:35:13;;;;;;;6.28;2.88;;;25.30;37.90;;;;;;5089875;28;20544;-56
2021/06/01 11:37:51;;;;;;;5.10;2.70;;;25.40;38.50;;;;;;5079076;28;20374;-61
2021/06/01 11:40:26;;;;;;;6.22;3.00;;;24.90;39.60;;;;;;5060753;28;20390;-59
2021/06/01 11:43:09;;;;;;;5.70;2.70;;;25.00;37.60;;;;;;5091031;28;20526;-55
2021/06/01 11:46:13;;;;;;;7.03;3.13;;;25.10;39.10;;;;;;5081697;28;20467;-58
2021/06/01 11:51:27;;;;;;;7.22;3.33;;;25.50;38.40;;;;;;5076077;28;20990;-57
2021/06/01 11:54:00;;;;;;;6.35;3.10;;;25.10;38.10;;;;;;5074266;28;20419;-54
2021/06/01 11:56:37;;;;;;;6.70;3.17;;;24.60;39.20;;;;;;5072569;28;20899;-55
2021/06/01 12:02:04;;;;;;;6.70;2.67;;;24.60;40.00;;;;;;5071070;28;20387;-55
2021/06/01 12:20:50;;;;;;;6.07;3.25;;;25.20;42.60;;;;;;5073580;28;20434;-57
2021/06/01 12:23:32;;;;;;;5.60;3.00;;;25.10;40.30;;;;;;5077848;28;20402;-60
2021/06/01 12:26:11;;;;;;;6.40;3.50;;;24.90;40.90;;;;;;5070244;28;20475;-66
2021/06/01 12:31:56;;;;;;;5.63;3.00;;;25.00;40.50;;;;;;5068069;28;20383;-59
2021/06/01 12:34:35;;;;;;;5.00;2.80;;;25.00;40.70;;;;;;5068702;28;20412;-59
2021/06/01 12:45:29;;;;;;;6.38;3.22;;;25.30;41.20;;;;;;5071507;28;20391;-69
2021/06/01 13:13:39;;;;;;;7.00;2.70;;;26.50;39.70;;;;;;5074303;28;20417;-55
2021/06/01 13:21:51;;;;;;;6.75;3.40;;;26.10;41.20;;;;;;5077883;28;20482;-55
2021/06/01 13:30:10;;;;;;;5.68;3.10;;;26.00;39.90;;;;;;5061312;28;20430;-55
2021/06/01 13:38:56;;;;;;;6.32;3.00;;;25.30;41.20;;;;;;5074786;28;20796;-60
2021/06/01 13:46:52;;;;;;;6.35;2.60;;;25.20;41.50;;;;;;5082601;28;20394;-55
2021/06/01 13:49:26;;;;;;;6.43;2.80;;;25.50;40.00;;;;;;5078281;28;20755;-55
2021/06/01 13:57:11;;;;;;;5.80;3.30;;;25.20;40.20;;;;;;5080349;28;20425;-55
2021/06/01 14:19:24;;;;;;;5.80;3.20;;;25.30;40.00;;;;;;5082675;28;20836;-56
2021/06/01 14:32:08;;;;;;;5.50;3.00;;;25.90;38.90;;;;;;5071478;28;20399;-52
2021/06/01 15:28:55;;;;;;;6.20;2.70;;;25.70;39.00;;;;;;5077598;28;20397;-53
2021/06/01 15:41:17;;;;;;;5.90;2.90;;;25.00;39.40;;;;;;5066040;28;20422;-53
2021/06/01 15:48:06;;;;;;;6.07;3.08;;;24.70;40.30;;;;;;5071135;28;20936;-53
2021/06/01 15:53:39;;;;;;;6.97;3.30;;;24.70;40.90;;;;;;5072741;28;20525;-52
2021/06/01 16:21:43;;;;;;;5.82;3.13;;;25.00;41.10;;;;;;5085478;28;20460;-52
2021/06/01 17:05:17;;;;;;;7.75;2.95;;;24.50;41.70;;;;;;5077252;28;20753;-56
2021/06/01 17:13:04;;;;;;;6.70;3.30;;;24.50;43.50;;;;;;5073256;28;20417;-55
2021/06/01 17:15:31;;;;;;;6.38;3.10;;;24.30;42.50;;;;;;5071679;28;20398;-55
2021/06/01 17:18:17;;;;;;;6.17;2.87;;;24.40;43.10;;;;;;5073929;28;20392;-57
2021/06/01 17:31:45;;;;;;;5.93;3.03;;;24.70;42.90;;;;;;5066740;28;20420;-54
2021/06/01 17:36:54;;;;;;;6.20;3.20;;;24.40;43.00;;;;;;5071484;28;20886;-53
2021/06/01 17:39:20;;;;;;;6.40;3.13;;;24.30;43.30;;;;;;5068835;28;20396;-53
2021/06/01 17:41:48;;;;;;;8.30;3.10;;;24.30;43.00;;;;;;5064108;28;20404;-58
2021/06/01 17:44:19;;;;;;;6.27;2.97;;;24.30;44.00;;;;;;5070060;28;20403;-59
2021/06/01 17:46:47;;;;;;;5.60;2.70;;;24.10;45.00;;;;;;5078613;28;20519;-52
2021/06/01 17:49:14;;;;;;;6.40;3.10;;;24.10;45.80;;;;;;5076740;28;20466;-60
2021/06/01 17:51:42;;;;;;;6.30;2.90;;;24.20;46.20;;;;;;5074640;28;20406;-53
2021/06/01 17:54:09;;;;;;;6.20;3.00;;;24.20;44.30;;;;;;5078299;28;20410;-53
2021/06/01 17:56:39;;;;;;;6.27;3.50;;;24.10;43.50;;;;;;5077550;28;20375;-52
2021/06/01 17:59:04;;;;;;;6.93;3.07;;;23.90;43.80;;;;;;5074171;28;20388;-52
2021/06/01 18:01:32;;;;;;;8.03;3.13;;;23.70;44.10;;;;;;5073361;28;20760;-52
2021/06/01 18:04:01;;;;;;;10.80;3.30;;;23.60;43.80;;;;;;5080121;28;20839;-52
2021/06/01 18:06:32;;;;;;;6.10;3.00;;;23.60;44.00;;;;;;5077094;28;20382;-53
2021/06/01 18:12:16;;;;;;;5.80;2.75;;;23.60;45.20;;;;;;5065677;28;20395;-52
2021/06/01 18:42:41;;;;;;;6.93;3.40;;;22.90;47.90;;;;;;5072174;28;20371;-52
2021/06/01 19:50:53;;;;;;;8.60;3.80;;;19.70;56.40;;;;;;5076348;28;20568;-54
2021/06/01 19:53:22;;;;;;;9.05;4.10;;;19.50;58.70;;;;;;5076027;28;20946;-58